createdAt,value
2023-04-16T00:01:06.963Z,7.4
2023-04-16T00:21:10.633Z,7.3
2023-04-16T00:41:13.685Z,7.5
2023-04-16T01:01:11.604Z,7.4
2023-04-16T01:21:08.078Z,7.5
2023-04-16T01:41:18.050Z,7.6
2023-04-16T02:01:11.536Z,7.6
2023-04-16T02:21:09.246Z,7.6
2023-04-16T02:41:08.243Z,7.6
2023-04-16T03:00:48.330Z,7.4
2023-04-16T03:20:46.603Z,7.5
2023-04-16T03:40:47.058Z,7.6
2023-04-16T04:01:07.162Z,7.5
2023-04-16T04:20:47.013Z,7.6
2023-04-16T04:40:46.834Z,7.6
2023-04-16T05:01:08.270Z,7.5
2023-04-16T05:20:47.251Z,7.6
2023-04-16T05:41:08.459Z,7.5
2023-04-16T06:01:07.017Z,7.6
2023-04-16T06:21:06.996Z,7.6
2023-04-16T06:41:12.887Z,7.6
2023-04-16T07:01:09.770Z,7.8
2023-04-16T07:21:08.219Z,7.7
2023-04-16T07:41:07.213Z,7.9
2023-04-16T08:01:09.335Z,8
2023-04-16T08:21:17.506Z,8.3
2023-04-16T08:41:14.569Z,8.5
2023-04-16T09:01:14.209Z,8.6
2023-04-16T09:21:09.637Z,8.6
2023-04-16T09:41:15.242Z,9
2023-04-16T10:01:08.632Z,9
2023-04-16T10:21:15.664Z,9.1
2023-04-16T10:41:10.488Z,9.2
2023-04-16T11:01:06.196Z,9.2
2023-04-16T11:21:19.643Z,9.2
2023-04-16T11:41:11.787Z,9.3
2023-04-16T12:01:08.339Z,9.3
2023-04-16T12:21:10.802Z,9.3
2023-04-16T12:41:10.573Z,9.4
2023-04-16T13:01:14.293Z,9.2
2023-04-16T13:21:09.959Z,9.2
2023-04-16T13:41:09.625Z,9.3
2023-04-16T14:01:11.753Z,9.4
2023-04-16T14:21:07.928Z,9.4
2023-04-16T14:41:20.850Z,9.6
2023-04-16T15:01:13.937Z,9.8
2023-04-16T15:21:09.102Z,9.8
2023-04-16T15:41:07.979Z,9.7
2023-04-16T16:01:14.320Z,9.8
2023-04-16T16:21:15.939Z,9.8
2023-04-16T16:41:18.240Z,9.7
2023-04-16T17:01:16.121Z,9.7
2023-04-16T17:21:10.421Z,9.6
2023-04-16T17:41:19.416Z,9.5
2023-04-16T18:01:06.485Z,9.4
2023-04-16T18:20:46.976Z,9.4
2023-04-16T18:40:50.435Z,9.4
2023-04-16T19:00:47.923Z,9.3
2023-04-16T19:20:47.141Z,9.2
2023-04-16T19:40:49.130Z,9.1
2023-04-16T20:00:49.519Z,9
2023-04-16T20:20:48.699Z,9
2023-04-16T20:40:47.541Z,8.9
2023-04-16T21:00:47.173Z,8.8
2023-04-16T21:20:49.274Z,8.8
2023-04-16T21:40:47.828Z,8.8
2023-04-16T22:00:51.638Z,8.7
2023-04-16T22:20:48.271Z,8.7
2023-04-16T22:40:46.945Z,8.6
2023-04-16T23:00:47.493Z,8.6
2023-04-16T23:20:55.392Z,8.6
2023-04-16T23:40:47.419Z,8.5
